sensor_id;sensor_type;location;lat;lon;timestamp;P1;durP1;ratioP1;P2;durP2;ratioP2
11004;SDS011;5555;59.622;16.556;2022-11-15T00:00:21;1.63;;;1.53;;
11004;SDS011;5555;59.622;16.556;2022-11-15T00:02:46;1.97;;;1.40;;
11004;SDS011;5555;59.622;16.556;2022-11-15T00:05:12;1.57;;;1.40;;
11004;SDS011;5555;59.622;16.556;2022-11-15T00:07:38;1.70;;;1.50;;
11004;SDS011;5555;59.622;16.556;2022-11-15T00:10:04;1.80;;;1.70;;
11004;SDS011;5555;59.622;16.556;2022-11-15T00:12:29;2.10;;;1.57;;
11004;SDS011;5555;59.622;16.556;2022-11-15T00:14:55;1.77;;;1.67;;
11004;SDS011;5555;59.622;16.556;2022-11-15T00:17:21;1.73;;;1.47;;
11004;SDS011;5555;59.622;16.556;2022-11-15T00:19:46;2.23;;;1.70;;
11004;SDS011;5555;59.622;16.556;2022-11-15T00:22:12;1.30;;;1.20;;
11004;SDS011;5555;59.622;16.556;2022-11-15T00:24:38;1.50;;;1.40;;
11004;SDS011;5555;59.622;16.556;2022-11-15T00:27:03;1.50;;;1.17;;
11004;SDS011;5555;59.622;16.556;2022-11-15T00:29:29;1.50;;;1.33;;
11004;SDS011;5555;59.622;16.556;2022-11-15T00:31:54;1.40;;;1.30;;
11004;SDS011;5555;59.622;16.556;2022-11-15T00:34:20;1.17;;;1.17;;
11004;SDS011;5555;59.622;16.556;2022-11-15T00:36:46;1.50;;;1.40;;
11004;SDS011;5555;59.622;16.556;2022-11-15T00:39:11;1.30;;;1.20;;
11004;SDS011;5555;59.622;16.556;2022-11-15T00:41:37;1.87;;;1.40;;
11004;SDS011;5555;59.622;16.556;2022-11-15T00:44:02;1.40;;;1.30;;
11004;SDS011;5555;59.622;16.556;2022-11-15T00:46:28;1.97;;;1.23;;
11004;SDS011;5555;59.622;16.556;2022-11-15T00:48:54;1.33;;;1.23;;
11004;SDS011;5555;59.622;16.556;2022-11-15T00:51:19;2.10;;;1.30;;
11004;SDS011;5555;59.622;16.556;2022-11-15T00:53:45;1.33;;;1.10;;
11004;SDS011;5555;59.622;16.556;2022-11-15T00:56:11;0.90;;;0.80;;
11004;SDS011;5555;59.622;16.556;2022-11-15T00:58:36;1.20;;;1.10;;
11004;SDS011;5555;59.622;16.556;2022-11-15T01:01:20;1.30;;;1.20;;
11004;SDS011;5555;59.622;16.556;2022-11-15T01:03:46;1.10;;;1.00;;
11004;SDS011;5555;59.622;16.556;2022-11-15T01:06:11;0.90;;;0.90;;
11004;SDS011;5555;59.622;16.556;2022-11-15T01:08:38;1.17;;;0.90;;
11004;SDS011;5555;59.622;16.556;2022-11-15T01:11:05;1.10;;;1.00;;
11004;SDS011;5555;59.622;16.556;2022-11-15T01:13:33;1.60;;;1.40;;
11004;SDS011;5555;59.622;16.556;2022-11-15T01:16:05;1.00;;;1.00;;
11004;SDS011;5555;59.622;16.556;2022-11-15T01:18:32;1.93;;;1.20;;
11004;SDS011;5555;59.622;16.556;2022-11-15T01:20:57;1.03;;;1.03;;
11004;SDS011;5555;59.622;16.556;2022-11-15T01:23:23;1.30;;;1.20;;
11004;SDS011;5555;59.622;16.556;2022-11-15T01:25:49;1.20;;;1.20;;
11004;SDS011;5555;59.622;16.556;2022-11-15T01:28:14;1.30;;;1.20;;
11004;SDS011;5555;59.622;16.556;2022-11-15T01:30:40;1.70;;;1.60;;
11004;SDS011;5555;59.622;16.556;2022-11-15T01:33:05;1.90;;;1.80;;
11004;SDS011;5555;59.622;16.556;2022-11-15T01:35:31;2.07;;;1.83;;
11004;SDS011;5555;59.622;16.556;2022-11-15T01:37:57;2.30;;;2.10;;
11004;SDS011;5555;59.622;16.556;2022-11-15T01:40:22;2.47;;;2.27;;
11004;SDS011;5555;59.622;16.556;2022-11-15T01:42:48;3.00;;;2.80;;
11004;SDS011;5555;59.622;16.556;2022-11-15T01:45:14;2.60;;;2.50;;
11004;SDS011;5555;59.622;16.556;2022-11-15T01:47:41;2.90;;;2.70;;
11004;SDS011;5555;59.622;16.556;2022-11-15T01:50:22;4.17;;;2.97;;
11004;SDS011;5555;59.622;16.556;2022-11-15T01:52:52;2.50;;;2.40;;
11004;SDS011;5555;59.622;16.556;2022-11-15T01:55:19;2.57;;;2.37;;
11004;SDS011;5555;59.622;16.556;2022-11-15T01:57:48;2.37;;;2.27;;
11004;SDS011;5555;59.622;16.556;2022-11-15T02:00:17;2.90;;;2.70;;
11004;SDS011;5555;59.622;16.556;2022-11-15T02:02:43;2.67;;;2.47;;
11004;SDS011;5555;59.622;16.556;2022-11-15T02:05:09;1.93;;;1.83;;
11004;SDS011;5555;59.622;16.556;2022-11-15T02:07:35;1.60;;;1.50;;
11004;SDS011;5555;59.622;16.556;2022-11-15T02:10:12;1.27;;;1.17;;
11004;SDS011;5555;59.622;16.556;2022-11-15T02:12:42;1.40;;;1.20;;
11004;SDS011;5555;59.622;16.556;2022-11-15T02:15:08;1.13;;;1.13;;
11004;SDS011;5555;59.622;16.556;2022-11-15T02:23:15;1.50;;;1.40;;
11004;SDS011;5555;59.622;16.556;2022-11-15T02:36:46;1.97;;;1.87;;
11004;SDS011;5555;59.622;16.556;2022-11-15T02:39:28;2.00;;;1.90;;
11004;SDS011;5555;59.622;16.556;2022-11-15T02:42:02;2.40;;;2.20;;
11004;SDS011;5555;59.622;16.556;2022-11-15T02:44:52;2.87;;;2.67;;
11004;SDS011;5555;59.622;16.556;2022-11-15T02:47:20;2.57;;;2.37;;
11004;SDS011;5555;59.622;16.556;2022-11-15T02:49:52;2.77;;;2.57;;
11004;SDS011;5555;59.622;16.556;2022-11-15T02:52:20;2.73;;;2.53;;
11004;SDS011;5555;59.622;16.556;2022-11-15T02:54:54;2.50;;;2.40;;
11004;SDS011;5555;59.622;16.556;2022-11-15T02:57:29;2.80;;;2.60;;
11004;SDS011;5555;59.622;16.556;2022-11-15T03:00:30;2.73;;;2.47;;
11004;SDS011;5555;59.622;16.556;2022-11-15T03:05:48;2.53;;;2.33;;
11004;SDS011;5555;59.622;16.556;2022-11-15T03:08:40;2.43;;;2.27;;
11004;SDS011;5555;59.622;16.556;2022-11-15T03:11:35;2.60;;;2.40;;
11004;SDS011;5555;59.622;16.556;2022-11-15T03:14:17;2.23;;;1.97;;
11004;SDS011;5555;59.622;16.556;2022-11-15T03:19:48;1.70;;;1.60;;
11004;SDS011;5555;59.622;16.556;2022-11-15T03:22:18;1.90;;;1.80;;
11004;SDS011;5555;59.622;16.556;2022-11-15T03:24:50;1.60;;;1.50;;
11004;SDS011;5555;59.622;16.556;2022-11-15T03:27:21;1.73;;;1.40;;
11004;SDS011;5555;59.622;16.556;2022-11-15T03:29:52;1.50;;;1.40;;
11004;SDS011;5555;59.622;16.556;2022-11-15T03:32:29;1.33;;;1.23;;
11004;SDS011;5555;59.622;16.556;2022-11-15T03:35:08;1.50;;;1.40;;
11004;SDS011;5555;59.622;16.556;2022-11-15T03:37:38;1.20;;;1.10;;
11004;SDS011;5555;59.622;16.556;2022-11-15T03:40:11;2.07;;;1.30;;
11004;SDS011;5555;59.622;16.556;2022-11-15T03:42:43;1.40;;;1.30;;
11004;SDS011;5555;59.622;16.556;2022-11-15T03:45:19;1.50;;;1.40;;
11004;SDS011;5555;59.622;16.556;2022-11-15T03:47:51;1.50;;;1.40;;
11004;SDS011;5555;59.622;16.556;2022-11-15T03:50:27;1.70;;;1.60;;
11004;SDS011;5555;59.622;16.556;2022-11-15T03:52:54;1.53;;;1.43;;
11004;SDS011;5555;59.622;16.556;2022-11-15T03:55:21;2.43;;;1.60;;
11004;SDS011;5555;59.622;16.556;2022-11-15T03:57:48;1.90;;;1.80;;
11004;SDS011;5555;59.622;16.556;2022-11-15T04:00:18;1.90;;;1.70;;
11004;SDS011;5555;59.622;16.556;2022-11-15T04:02:43;4.23;;;1.67;;
11004;SDS011;5555;59.622;16.556;2022-11-15T04:05:09;1.80;;;1.70;;
11004;SDS011;5555;59.622;16.556;2022-11-15T04:07:34;2.17;;;2.00;;
11004;SDS011;5555;59.622;16.556;2022-11-15T04:10:00;1.90;;;1.80;;
11004;SDS011;5555;59.622;16.556;2022-11-15T04:12:29;2.20;;;2.10;;
11004;SDS011;5555;59.622;16.556;2022-11-15T04:15:06;2.40;;;2.20;;
11004;SDS011;5555;59.622;16.556;2022-11-15T04:17:34;2.47;;;2.33;;
11004;SDS011;5555;59.622;16.556;2022-11-15T04:20:02;2.43;;;2.23;;
11004;SDS011;5555;59.622;16.556;2022-11-15T04:22:58;2.70;;;2.50;;
11004;SDS011;5555;59.622;16.556;2022-11-15T04:25:43;3.50;;;2.77;;
11004;SDS011;5555;59.622;16.556;2022-11-15T04:28:10;3.67;;;3.23;;
11004;SDS011;5555;59.622;16.556;2022-11-15T04:30:36;3.30;;;3.00;;
11004;SDS011;5555;59.622;16.556;2022-11-15T04:33:02;3.67;;;3.37;;
11004;SDS011;5555;59.622;16.556;2022-11-15T04:35:28;4.13;;;3.60;;
11004;SDS011;5555;59.622;16.556;2022-11-15T04:37:54;4.83;;;3.23;;
11004;SDS011;5555;59.622;16.556;2022-11-15T04:40:21;7.23;;;3.60;;
11004;SDS011;5555;59.622;16.556;2022-11-15T04:42:47;8.83;;;5.00;;
11004;SDS011;5555;59.622;16.556;2022-11-15T04:45:12;7.43;;;4.93;;
11004;SDS011;5555;59.622;16.556;2022-11-15T04:47:38;7.13;;;5.00;;
11004;SDS011;5555;59.622;16.556;2022-11-15T04:50:04;6.23;;;4.77;;
11004;SDS011;5555;59.622;16.556;2022-11-15T04:52:30;6.83;;;5.00;;
11004;SDS011;5555;59.622;16.556;2022-11-15T04:54:56;6.63;;;5.00;;
11004;SDS011;5555;59.622;16.556;2022-11-15T04:57:21;11.07;;;5.30;;
11004;SDS011;5555;59.622;16.556;2022-11-15T04:59:47;9.97;;;4.87;;
11004;SDS011;5555;59.622;16.556;2022-11-15T05:02:13;7.13;;;4.93;;
11004;SDS011;5555;59.622;16.556;2022-11-15T05:04:38;7.47;;;4.60;;
11004;SDS011;5555;59.622;16.556;2022-11-15T05:07:04;6.60;;;5.13;;
11004;SDS011;5555;59.622;16.556;2022-11-15T05:09:30;9.03;;;5.00;;
11004;SDS011;5555;59.622;16.556;2022-11-15T05:11:56;7.40;;;4.27;;
11004;SDS011;5555;59.622;16.556;2022-11-15T05:14:22;6.43;;;4.33;;
11004;SDS011;5555;59.622;16.556;2022-11-15T05:16:48;7.57;;;4.27;;
11004;SDS011;5555;59.622;16.556;2022-11-15T05:19:13;8.83;;;4.60;;
11004;SDS011;5555;59.622;16.556;2022-11-15T05:21:39;6.13;;;4.17;;
11004;SDS011;5555;59.622;16.556;2022-11-15T05:24:05;8.53;;;4.63;;
11004;SDS011;5555;59.622;16.556;2022-11-15T05:26:31;6.27;;;4.20;;
11004;SDS011;5555;59.622;16.556;2022-11-15T05:28:57;8.73;;;4.33;;
11004;SDS011;5555;59.622;16.556;2022-11-15T05:31:24;7.80;;;4.17;;
11004;SDS011;5555;59.622;16.556;2022-11-15T05:33:51;8.27;;;3.97;;
11004;SDS011;5555;59.622;16.556;2022-11-15T05:38:57;8.13;;;4.10;;
11004;SDS011;5555;59.622;16.556;2022-11-15T05:41:31;8.97;;;3.77;;
11004;SDS011;5555;59.622;16.556;2022-11-15T05:44:00;8.30;;;4.13;;
11004;SDS011;5555;59.622;16.556;2022-11-15T05:46:27;8.47;;;3.33;;
11004;SDS011;5555;59.622;16.556;2022-11-15T05:48:54;8.03;;;3.67;;
11004;SDS011;5555;59.622;16.556;2022-11-15T05:51:21;7.13;;;3.57;;
11004;SDS011;5555;59.622;16.556;2022-11-15T05:53:48;6.07;;;2.70;;
11004;SDS011;5555;59.622;16.556;2022-11-15T05:56:15;7.57;;;3.57;;
11004;SDS011;5555;59.622;16.556;2022-11-15T05:58:41;6.10;;;3.20;;
11004;SDS011;5555;59.622;16.556;2022-11-15T06:01:08;4.47;;;2.83;;
11004;SDS011;5555;59.622;16.556;2022-11-15T06:03:34;6.70;;;3.30;;
11004;SDS011;5555;59.622;16.556;2022-11-15T06:05:59;8.07;;;2.70;;
11004;SDS011;5555;59.622;16.556;2022-11-15T06:08:25;7.43;;;2.60;;
11004;SDS011;5555;59.622;16.556;2022-11-15T06:10:50;4.50;;;2.23;;
11004;SDS011;5555;59.622;16.556;2022-11-15T06:13:16;4.73;;;2.13;;
11004;SDS011;5555;59.622;16.556;2022-11-15T06:15:42;2.87;;;2.00;;
11004;SDS011;5555;59.622;16.556;2022-11-15T06:18:07;4.33;;;1.90;;
11004;SDS011;5555;59.622;16.556;2022-11-15T06:20:33;5.77;;;1.97;;
11004;SDS011;5555;59.622;16.556;2022-11-15T06:22:59;3.33;;;1.33;;
11004;SDS011;5555;59.622;16.556;2022-11-15T06:25:26;4.03;;;1.43;;
11004;SDS011;5555;59.622;16.556;2022-11-15T06:27:53;5.23;;;1.40;;
11004;SDS011;5555;59.622;16.556;2022-11-15T06:30:19;4.60;;;1.40;;
11004;SDS011;5555;59.622;16.556;2022-11-15T06:32:45;4.47;;;1.50;;
11004;SDS011;5555;59.622;16.556;2022-11-15T06:35:11;3.73;;;1.00;;
11004;SDS011;5555;59.622;16.556;2022-11-15T06:37:37;3.00;;;1.23;;
11004;SDS011;5555;59.622;16.556;2022-11-15T06:40:02;3.77;;;1.10;;
11004;SDS011;5555;59.622;16.556;2022-11-15T06:42:28;4.13;;;1.10;;
11004;SDS011;5555;59.622;16.556;2022-11-15T06:44:54;5.40;;;1.63;;
11004;SDS011;5555;59.622;16.556;2022-11-15T06:47:20;5.23;;;1.60;;
11004;SDS011;5555;59.622;16.556;2022-11-15T06:49:45;3.97;;;1.40;;
11004;SDS011;5555;59.622;16.556;2022-11-15T06:52:11;3.83;;;1.30;;
11004;SDS011;5555;59.622;16.556;2022-11-15T06:54:36;6.07;;;1.43;;
11004;SDS011;5555;59.622;16.556;2022-11-15T06:57:03;4.17;;;1.50;;
11004;SDS011;5555;59.622;16.556;2022-11-15T06:59:29;5.73;;;1.70;;
11004;SDS011;5555;59.622;16.556;2022-11-15T07:01:55;4.43;;;1.60;;
11004;SDS011;5555;59.622;16.556;2022-11-15T07:04:21;4.23;;;1.17;;
11004;SDS011;5555;59.622;16.556;2022-11-15T07:06:47;2.77;;;1.37;;
11004;SDS011;5555;59.622;16.556;2022-11-15T07:09:13;6.33;;;1.73;;
11004;SDS011;5555;59.622;16.556;2022-11-15T07:11:39;4.77;;;1.50;;
11004;SDS011;5555;59.622;16.556;2022-11-15T07:14:05;2.30;;;1.03;;
11004;SDS011;5555;59.622;16.556;2022-11-15T07:16:31;5.50;;;1.10;;
11004;SDS011;5555;59.622;16.556;2022-11-15T07:18:57;3.47;;;1.43;;
11004;SDS011;5555;59.622;16.556;2022-11-15T07:21:22;4.77;;;1.10;;
11004;SDS011;5555;59.622;16.556;2022-11-15T07:23:48;3.43;;;1.50;;
11004;SDS011;5555;59.622;16.556;2022-11-15T07:26:13;5.30;;;1.33;;
11004;SDS011;5555;59.622;16.556;2022-11-15T07:28:39;3.87;;;1.37;;
11004;SDS011;5555;59.622;16.556;2022-11-15T07:31:06;3.97;;;1.40;;
11004;SDS011;5555;59.622;16.556;2022-11-15T07:33:33;3.87;;;1.43;;
11004;SDS011;5555;59.622;16.556;2022-11-15T07:36:00;4.63;;;1.40;;
11004;SDS011;5555;59.622;16.556;2022-11-15T07:38:27;4.80;;;1.53;;
11004;SDS011;5555;59.622;16.556;2022-11-15T07:41:00;5.30;;;1.57;;
11004;SDS011;5555;59.622;16.556;2022-11-15T07:43:28;6.27;;;1.70;;
11004;SDS011;5555;59.622;16.556;2022-11-15T07:45:54;7.13;;;2.17;;
11004;SDS011;5555;59.622;16.556;2022-11-15T07:48:21;6.90;;;1.60;;
11004;SDS011;5555;59.622;16.556;2022-11-15T07:50:47;3.10;;;1.30;;
11004;SDS011;5555;59.622;16.556;2022-11-15T07:53:13;5.63;;;2.03;;
11004;SDS011;5555;59.622;16.556;2022-11-15T07:55:39;2.70;;;1.27;;
11004;SDS011;5555;59.622;16.556;2022-11-15T07:58:07;2.37;;;1.30;;
11004;SDS011;5555;59.622;16.556;2022-11-15T08:00:35;4.70;;;1.50;;
11004;SDS011;5555;59.622;16.556;2022-11-15T08:03:05;5.00;;;1.33;;
11004;SDS011;5555;59.622;16.556;2022-11-15T08:05:38;2.27;;;1.20;;
11004;SDS011;5555;59.622;16.556;2022-11-15T08:08:05;3.97;;;1.50;;
11004;SDS011;5555;59.622;16.556;2022-11-15T08:10:32;4.07;;;1.37;;
11004;SDS011;5555;59.622;16.556;2022-11-15T08:13:03;2.37;;;1.30;;
11004;SDS011;5555;59.622;16.556;2022-11-15T08:15:30;5.20;;;1.47;;
11004;SDS011;5555;59.622;16.556;2022-11-15T08:17:58;2.33;;;1.10;;
11004;SDS011;5555;59.622;16.556;2022-11-15T08:20:25;3.63;;;0.90;;
11004;SDS011;5555;59.622;16.556;2022-11-15T08:22:56;4.03;;;1.40;;
11004;SDS011;5555;59.622;16.556;2022-11-15T08:25:26;2.10;;;1.10;;
11004;SDS011;5555;59.622;16.556;2022-11-15T08:27:53;5.13;;;1.57;;
11004;SDS011;5555;59.622;16.556;2022-11-15T08:30:24;3.53;;;1.20;;
11004;SDS011;5555;59.622;16.556;2022-11-15T08:32:50;3.17;;;1.30;;
11004;SDS011;5555;59.622;16.556;2022-11-15T08:35:17;4.33;;;1.40;;
11004;SDS011;5555;59.622;16.556;2022-11-15T08:37:44;4.27;;;1.77;;
11004;SDS011;5555;59.622;16.556;2022-11-15T08:40:10;3.53;;;1.50;;
11004;SDS011;5555;59.622;16.556;2022-11-15T08:42:36;3.60;;;1.50;;
11004;SDS011;5555;59.622;16.556;2022-11-15T08:45:02;3.93;;;1.60;;
11004;SDS011;5555;59.622;16.556;2022-11-15T08:47:28;2.53;;;1.30;;
11004;SDS011;5555;59.622;16.556;2022-11-15T08:49:54;3.10;;;1.50;;
11004;SDS011;5555;59.622;16.556;2022-11-15T08:52:19;3.13;;;1.63;;
11004;SDS011;5555;59.622;16.556;2022-11-15T08:54:45;2.63;;;1.60;;
11004;SDS011;5555;59.622;16.556;2022-11-15T08:57:11;3.47;;;1.57;;
11004;SDS011;5555;59.622;16.556;2022-11-15T08:59:37;3.10;;;1.10;;
11004;SDS011;5555;59.622;16.556;2022-11-15T09:02:03;4.30;;;1.40;;
11004;SDS011;5555;59.622;16.556;2022-11-15T09:04:29;6.43;;;1.50;;
11004;SDS011;5555;59.622;16.556;2022-11-15T09:06:54;3.67;;;1.50;;
11004;SDS011;5555;59.622;16.556;2022-11-15T09:09:20;1.67;;;0.87;;
11004;SDS011;5555;59.622;16.556;2022-11-15T09:11:46;2.17;;;1.10;;
11004;SDS011;5555;59.622;16.556;2022-11-15T09:14:12;2.60;;;1.20;;
11004;SDS011;5555;59.622;16.556;2022-11-15T09:16:38;2.63;;;1.07;;
11004;SDS011;5555;59.622;16.556;2022-11-15T09:19:03;1.73;;;1.03;;
11004;SDS011;5555;59.622;16.556;2022-11-15T09:21:29;3.30;;;1.27;;
11004;SDS011;5555;59.622;16.556;2022-11-15T09:23:55;3.30;;;1.23;;
11004;SDS011;5555;59.622;16.556;2022-11-15T09:26:21;2.50;;;1.07;;
11004;SDS011;5555;59.622;16.556;2022-11-15T09:28:47;2.13;;;1.20;;
11004;SDS011;5555;59.622;16.556;2022-11-15T09:31:13;3.20;;;1.20;;
11004;SDS011;5555;59.622;16.556;2022-11-15T09:33:39;2.27;;;1.00;;
11004;SDS011;5555;59.622;16.556;2022-11-15T09:36:05;2.73;;;1.10;;
11004;SDS011;5555;59.622;16.556;2022-11-15T09:38:33;3.07;;;1.30;;
11004;SDS011;5555;59.622;16.556;2022-11-15T09:44:26;2.53;;;1.00;;
11004;SDS011;5555;59.622;16.556;2022-11-15T09:47:32;3.07;;;0.83;;
11004;SDS011;5555;59.622;16.556;2022-11-15T09:50:10;3.07;;;1.07;;
11004;SDS011;5555;59.622;16.556;2022-11-15T09:52:38;2.43;;;1.20;;
11004;SDS011;5555;59.622;16.556;2022-11-15T09:55:07;2.03;;;0.80;;
11004;SDS011;5555;59.622;16.556;2022-11-15T09:57:41;1.77;;;0.87;;
11004;SDS011;5555;59.622;16.556;2022-11-15T10:00:18;2.77;;;1.07;;
11004;SDS011;5555;59.622;16.556;2022-11-15T10:05:17;3.23;;;1.30;;
11004;SDS011;5555;59.622;16.556;2022-11-15T10:13:45;2.13;;;0.70;;
11004;SDS011;5555;59.622;16.556;2022-11-15T10:22:06;2.73;;;0.80;;
11004;SDS011;5555;59.622;16.556;2022-11-15T10:24:46;3.03;;;0.87;;
11004;SDS011;5555;59.622;16.556;2022-11-15T10:27:16;3.47;;;0.80;;
11004;SDS011;5555;59.622;16.556;2022-11-15T10:29:44;1.90;;;0.80;;
11004;SDS011;5555;59.622;16.556;2022-11-15T10:32:11;3.67;;;0.77;;
11004;SDS011;5555;59.622;16.556;2022-11-15T10:34:37;2.77;;;1.10;;
11004;SDS011;5555;59.622;16.556;2022-11-15T10:37:04;2.73;;;0.80;;
11004;SDS011;5555;59.622;16.556;2022-11-15T10:39:30;1.73;;;0.87;;
11004;SDS011;5555;59.622;16.556;2022-11-15T10:41:56;2.00;;;0.80;;
11004;SDS011;5555;59.622;16.556;2022-11-15T10:44:23;2.13;;;0.80;;
11004;SDS011;5555;59.622;16.556;2022-11-15T10:49:25;2.87;;;0.80;;
11004;SDS011;5555;59.622;16.556;2022-11-15T10:54:55;2.33;;;1.27;;
11004;SDS011;5555;59.622;16.556;2022-11-15T10:57:32;2.47;;;1.20;;
11004;SDS011;5555;59.622;16.556;2022-11-15T11:00:06;3.00;;;0.73;;
11004;SDS011;5555;59.622;16.556;2022-11-15T11:05:39;2.50;;;1.10;;
11004;SDS011;5555;59.622;16.556;2022-11-15T11:10:42;6.33;;;1.63;;
11004;SDS011;5555;59.622;16.556;2022-11-15T11:13:22;1.93;;;0.80;;
11004;SDS011;5555;59.622;16.556;2022-11-15T11:15:52;4.33;;;1.67;;
11004;SDS011;5555;59.622;16.556;2022-11-15T11:18:23;4.87;;;1.10;;
11004;SDS011;5555;59.622;16.556;2022-11-15T11:20:58;2.73;;;1.20;;
11004;SDS011;5555;59.622;16.556;2022-11-15T11:23:36;3.63;;;1.10;;
11004;SDS011;5555;59.622;16.556;2022-11-15T11:26:18;2.83;;;1.10;;
11004;SDS011;5555;59.622;16.556;2022-11-15T11:28:56;1.30;;;0.70;;
11004;SDS011;5555;59.622;16.556;2022-11-15T11:31:47;1.70;;;0.73;;
11004;SDS011;5555;59.622;16.556;2022-11-15T11:37:12;3.67;;;1.00;;
11004;SDS011;5555;59.622;16.556;2022-11-15T11:48:23;5.33;;;0.80;;
11004;SDS011;5555;59.622;16.556;2022-11-15T11:51:03;2.77;;;1.23;;
11004;SDS011;5555;59.622;16.556;2022-11-15T11:53:37;1.83;;;0.77;;
11004;SDS011;5555;59.622;16.556;2022-11-15T11:56:16;1.90;;;0.60;;
11004;SDS011;5555;59.622;16.556;2022-11-15T11:58:52;1.90;;;0.77;;
11004;SDS011;5555;59.622;16.556;2022-11-15T12:01:24;1.70;;;0.77;;
11004;SDS011;5555;59.622;16.556;2022-11-15T12:09:02;1.73;;;0.70;;
11004;SDS011;5555;59.622;16.556;2022-11-15T12:14:19;4.30;;;1.30;;
11004;SDS011;5555;59.622;16.556;2022-11-15T12:16:56;3.30;;;1.00;;
11004;SDS011;5555;59.622;16.556;2022-11-15T12:19:23;2.13;;;0.90;;
11004;SDS011;5555;59.622;16.556;2022-11-15T12:21:55;2.20;;;0.97;;
11004;SDS011;5555;59.622;16.556;2022-11-15T12:24:43;3.20;;;1.00;;
11004;SDS011;5555;59.622;16.556;2022-11-15T12:27:18;2.43;;;1.20;;
11004;SDS011;5555;59.622;16.556;2022-11-15T12:29:56;3.17;;;1.20;;
11004;SDS011;5555;59.622;16.556;2022-11-15T12:32:28;3.73;;;0.83;;
11004;SDS011;5555;59.622;16.556;2022-11-15T12:34:57;3.97;;;1.23;;
11004;SDS011;5555;59.622;16.556;2022-11-15T12:40:22;1.07;;;0.77;;
11004;SDS011;5555;59.622;16.556;2022-11-15T12:42:58;4.50;;;1.00;;
11004;SDS011;5555;59.622;16.556;2022-11-15T12:45:47;3.03;;;0.87;;
11004;SDS011;5555;59.622;16.556;2022-11-15T12:56:09;3.20;;;0.80;;
11004;SDS011;5555;59.622;16.556;2022-11-15T12:58:42;3.00;;;0.70;;
11004;SDS011;5555;59.622;16.556;2022-11-15T13:01:08;1.63;;;0.70;;
11004;SDS011;5555;59.622;16.556;2022-11-15T13:03:35;2.00;;;0.87;;
11004;SDS011;5555;59.622;16.556;2022-11-15T13:06:36;2.77;;;1.10;;
11004;SDS011;5555;59.622;16.556;2022-11-15T13:12:00;2.80;;;1.00;;
11004;SDS011;5555;59.622;16.556;2022-11-15T13:14:43;2.07;;;0.83;;
11004;SDS011;5555;59.622;16.556;2022-11-15T13:19:44;3.50;;;0.90;;
11004;SDS011;5555;59.622;16.556;2022-11-15T13:22:11;2.93;;;1.00;;
11004;SDS011;5555;59.622;16.556;2022-11-15T13:24:56;2.70;;;1.00;;
11004;SDS011;5555;59.622;16.556;2022-11-15T13:27:23;5.47;;;1.07;;
11004;SDS011;5555;59.622;16.556;2022-11-15T13:29:50;4.20;;;0.77;;
11004;SDS011;5555;59.622;16.556;2022-11-15T13:32:17;1.47;;;0.93;;
11004;SDS011;5555;59.622;16.556;2022-11-15T13:34:44;2.20;;;1.10;;
11004;SDS011;5555;59.622;16.556;2022-11-15T13:39:50;3.57;;;1.10;;
11004;SDS011;5555;59.622;16.556;2022-11-15T13:42:16;2.23;;;0.87;;
11004;SDS011;5555;59.622;16.556;2022-11-15T13:44:56;3.93;;;0.87;;
11004;SDS011;5555;59.622;16.556;2022-11-15T13:47:27;3.57;;;0.70;;
11004;SDS011;5555;59.622;16.556;2022-11-15T13:49:56;2.70;;;0.70;;
11004;SDS011;5555;59.622;16.556;2022-11-15T13:52:24;3.67;;;1.00;;
11004;SDS011;5555;59.622;16.556;2022-11-15T13:57:44;3.70;;;1.17;;
11004;SDS011;5555;59.622;16.556;2022-11-15T14:00:32;3.67;;;0.93;;
11004;SDS011;5555;59.622;16.556;2022-11-15T14:03:19;2.97;;;1.00;;
11004;SDS011;5555;59.622;16.556;2022-11-15T14:06:03;1.43;;;0.70;;
11004;SDS011;5555;59.622;16.556;2022-11-15T14:08:37;1.73;;;0.70;;
11004;SDS011;5555;59.622;16.556;2022-11-15T14:11:14;3.17;;;1.00;;
11004;SDS011;5555;59.622;16.556;2022-11-15T14:13:42;2.63;;;0.60;;
11004;SDS011;5555;59.622;16.556;2022-11-15T14:16:44;3.70;;;0.80;;
11004;SDS011;5555;59.622;16.556;2022-11-15T14:19:12;3.20;;;0.80;;
11004;SDS011;5555;59.622;16.556;2022-11-15T14:27:42;3.67;;;0.93;;
11004;SDS011;5555;59.622;16.556;2022-11-15T14:30:12;3.33;;;1.10;;
11004;SDS011;5555;59.622;16.556;2022-11-15T14:32:44;3.90;;;1.13;;
11004;SDS011;5555;59.622;16.556;2022-11-15T14:35:14;3.33;;;1.00;;
11004;SDS011;5555;59.622;16.556;2022-11-15T14:37:42;3.63;;;1.30;;
11004;SDS011;5555;59.622;16.556;2022-11-15T14:40:08;3.10;;;1.30;;
11004;SDS011;5555;59.622;16.556;2022-11-15T14:42:37;3.47;;;1.13;;
11004;SDS011;5555;59.622;16.556;2022-11-15T14:45:02;4.87;;;1.70;;
11004;SDS011;5555;59.622;16.556;2022-11-15T14:47:33;3.80;;;1.33;;
11004;SDS011;5555;59.622;16.556;2022-11-15T14:49:59;3.27;;;1.30;;
11004;SDS011;5555;59.622;16.556;2022-11-15T14:52:26;4.93;;;1.50;;
11004;SDS011;5555;59.622;16.556;2022-11-15T14:54:58;2.90;;;0.93;;
11004;SDS011;5555;59.622;16.556;2022-11-15T14:57:26;1.77;;;0.80;;
11004;SDS011;5555;59.622;16.556;2022-11-15T14:59:52;2.57;;;1.03;;
11004;SDS011;5555;59.622;16.556;2022-11-15T15:02:22;2.67;;;0.70;;
11004;SDS011;5555;59.622;16.556;2022-11-15T15:04:49;3.13;;;0.67;;
11004;SDS011;5555;59.622;16.556;2022-11-15T15:07:15;3.23;;;0.97;;
11004;SDS011;5555;59.622;16.556;2022-11-15T15:09:42;3.83;;;1.07;;
11004;SDS011;5555;59.622;16.556;2022-11-15T15:12:17;2.50;;;0.93;;
11004;SDS011;5555;59.622;16.556;2022-11-15T15:14:47;3.07;;;1.07;;
11004;SDS011;5555;59.622;16.556;2022-11-15T15:17:14;2.83;;;0.93;;
11004;SDS011;5555;59.622;16.556;2022-11-15T15:19:41;3.17;;;0.57;;
11004;SDS011;5555;59.622;16.556;2022-11-15T15:22:14;1.77;;;0.70;;
11004;SDS011;5555;59.622;16.556;2022-11-15T15:24:45;2.97;;;0.93;;
11004;SDS011;5555;59.622;16.556;2022-11-15T15:27:11;2.53;;;0.80;;
11004;SDS011;5555;59.622;16.556;2022-11-15T15:29:38;7.37;;;0.97;;
11004;SDS011;5555;59.622;16.556;2022-11-15T15:32:04;1.93;;;0.70;;
11004;SDS011;5555;59.622;16.556;2022-11-15T15:34:30;2.43;;;0.93;;
11004;SDS011;5555;59.622;16.556;2022-11-15T15:39:49;2.63;;;0.83;;
11004;SDS011;5555;59.622;16.556;2022-11-15T15:42:15;2.83;;;0.70;;
11004;SDS011;5555;59.622;16.556;2022-11-15T15:44:41;3.27;;;0.80;;
11004;SDS011;5555;59.622;16.556;2022-11-15T15:47:09;5.00;;;1.40;;
11004;SDS011;5555;59.622;16.556;2022-11-15T15:49:44;1.60;;;0.93;;
11004;SDS011;5555;59.622;16.556;2022-11-15T15:52:10;3.00;;;1.07;;
11004;SDS011;5555;59.622;16.556;2022-11-15T15:54:36;2.97;;;0.93;;
11004;SDS011;5555;59.622;16.556;2022-11-15T15:57:02;3.00;;;0.90;;
11004;SDS011;5555;59.622;16.556;2022-11-15T15:59:29;4.40;;;1.00;;
11004;SDS011;5555;59.622;16.556;2022-11-15T16:01:55;1.53;;;0.97;;
11004;SDS011;5555;59.622;16.556;2022-11-15T16:04:21;3.10;;;1.27;;
11004;SDS011;5555;59.622;16.556;2022-11-15T16:06:46;3.37;;;0.90;;
11004;SDS011;5555;59.622;16.556;2022-11-15T16:09:15;2.07;;;0.97;;
11004;SDS011;5555;59.622;16.556;2022-11-15T16:11:43;4.60;;;1.10;;
11004;SDS011;5555;59.622;16.556;2022-11-15T16:14:10;5.27;;;1.30;;
11004;SDS011;5555;59.622;16.556;2022-11-15T16:16:35;2.23;;;1.10;;
11004;SDS011;5555;59.622;16.556;2022-11-15T16:19:03;3.90;;;1.53;;
11004;SDS011;5555;59.622;16.556;2022-11-15T16:21:29;2.67;;;1.10;;
11004;SDS011;5555;59.622;16.556;2022-11-15T16:23:55;5.57;;;1.37;;
11004;SDS011;5555;59.622;16.556;2022-11-15T16:26:22;5.53;;;1.43;;
11004;SDS011;5555;59.622;16.556;2022-11-15T16:28:50;3.10;;;1.40;;
11004;SDS011;5555;59.622;16.556;2022-11-15T16:31:16;5.00;;;1.20;;
11004;SDS011;5555;59.622;16.556;2022-11-15T16:33:44;4.67;;;2.23;;
11004;SDS011;5555;59.622;16.556;2022-11-15T16:38:49;6.30;;;1.47;;
11004;SDS011;5555;59.622;16.556;2022-11-15T16:41:16;4.77;;;1.40;;
11004;SDS011;5555;59.622;16.556;2022-11-15T16:43:45;4.63;;;1.37;;
11004;SDS011;5555;59.622;16.556;2022-11-15T16:46:13;3.87;;;1.63;;